Gardner, MA

9:59 PM EDT on March 27, 2015 (GMT -0400)
Worcester Regional | | Change Station
CLOSE
Current Station
Airport
Location: Worcester,
Elevation: 1007 ft
Nearby Weather Stations
Active Advisory: Special Statement

Elev 1007 ft 42.27 °N, 71.87 °W | Updated 5 minutes ago

Overcast
Overcast
37 °F
Feels Like 32 °F
N
6
Wind Variable Wind from WNW

Today
High -- | Low -- °F
--% Chance of Precip.
Yesterday
High -- | Low -- °F
Precip. -- in
6:39 AM 7:07 PM
First Quarter, 57% visible
Pressure 29.76 in
Visibility 10.0 miles
Clouds Overcast 5000 ft
Windchill 32 °F
Dew Point 31 °F
Humidity 79%
Rainfall 0.12 in
Snow Depth Not available.
UV 0 out of 12
Pollen 1.70 out of 12
Air Quality Not available.
Flu Activity Not available.
METAR KORH 280154Z AUTO 29005KT 10SM OVC050 03/M01 A2973 RMK AO2 SLP077 T00281006

More Conditions Fewer Conditions

Pressure 29.76 in
Visibility 10.0 miles
Clouds Overcast 5000 ft
Windchill 32 °F
Dew Point 31 °F
Humidity 79%
Rainfall 0.12 in
Snow Depth Not available.
UV 0 out of 12
Pollen 1.70 out of 12
Air Quality Not available.
Flu Activity Not available.
METAR KORH 280154Z AUTO 29005KT 10SM OVC050 03/M01 A2973 RMK AO2 SLP077 T00281006

More Conditions Fewer Conditions

10-Day Weather Forecast

Almanac

Astronomy

Mar. 27, 2015 Rise Set
Actual Time
Civil Twilight
Nautical Twilight
Astronomical Twilight
Moon
Length of Visible Light
Length of Day
Tomorrow will be .
, % of the Moon is Illuminated

Today's Extremes

State Highs State Lows

Community

WunderPhotos

Upload Photos

1,808,911 photos uploaded!

WunderBlogs® & News

Nearby

Air Quality

  Air Quality AQ Index Pollutant
Not available.

Snow Depth

Station Depth Elevation

Earthquake Activity

City Distance Mag. Time & Date
Minimum magnitude displayed is 2.5.

Coastal Water Temperatures

Place Temperature

Stations

Nearby Weather Stations

Station Location Temp. Windchill Dew Point Humidity Wind Precip. Elev Updated Type
                   
Special Statement
Statement as of 4:45 PM EDT on March 27, 2015

... Accumulating snowfall expected late tonight into Saturday...

A low pressure passing well southeast of southern New England will
produce some snowfall within our region. The expected timing will
be late tonight into Saturday.

Travelers should be prepared for lower visibility at times...
along with the possibility of snow-covered roads.

Total snow accumulations of 1 to 3 inches are expected... with
locally higher amounts possible. Please see our winter weather
Page for more details at... weather.Gov/Boston/winter.


Belk